METAR Data
IDs: Format: Raw Decoded Include TAF

Data at: 1335 UTC 14 Dec 2019

METAR for:KTVY (Tooele Valley Arpt, UT, US)
Text:KTVY 141335Z AUTO 08005KT 10SM -RA SCT006 BKN012 OVC040 01/01 A2980 RMK AO2
Temperature: 1.0°C ( 34°F)
Dewpoint: 1.0°C ( 34°F) [RH = 100%]
Pressure (altimeter):29.80 inches Hg (1009.2 mb)
Winds:from the E (80 degrees) at 6 MPH (5 knots; 2.6 m/s)
Visibility:10 or more sm (16+ km)
Ceiling:1200 feet AGL
Clouds: scattered clouds at 600 feet AGL, broken clouds at 1200 feet AGL, overcast cloud deck at 4000 feet AGL
Weather:-RA (light rain)
QC Flag:automated observation with no human augmentation
Text:KTVY 141315Z AUTO 04009KT 10SM -RA BKN010 BKN031 OVC060 01/01 A2978 RMK AO2
Temperature: 1.0°C ( 34°F)
Dewpoint: 1.0°C ( 34°F) [RH = 100%]
Pressure (altimeter):29.78 inches Hg (1008.5 mb)
Winds:from the NE (40 degrees) at 10 MPH (9 knots; 4.6 m/s)
Visibility:10 or more sm (16+ km)
Ceiling:1000 feet AGL
Clouds: broken clouds at 1000 feet AGL, broken clouds at 3100 feet AGL, overcast cloud deck at 6000 feet AGL
Weather:-RA (light rain)
QC Flag:automated observation with no human augmentation
Text:KTVY 141255Z AUTO 35012G15KT 10SM -DZ SCT010 BKN037 OVC045 02/02 A2978 RMK AO2
Temperature: 2.0°C ( 36°F)
Dewpoint: 2.0°C ( 36°F) [RH = 100%]
Pressure (altimeter):29.78 inches Hg (1008.5 mb)
Winds:from the N (350 degrees) at 14 MPH (12 knots; 6.2 m/s) gusting to 17 MPH (15 knots; 7.7 m/s)
Visibility:10 or more sm (16+ km)
Ceiling:3700 feet AGL
Clouds: scattered clouds at 1000 feet AGL, broken clouds at 3700 feet AGL, overcast cloud deck at 4500 feet AGL
Weather:-DZ (light drizzle)
QC Flag:automated observation with no human augmentation
Text:KTVY 141235Z AUTO 35011KT 10SM -RA SCT027 BKN046 OVC060 02/02 A2977 RMK AO2
Temperature: 2.0°C ( 36°F)
Dewpoint: 2.0°C ( 36°F) [RH = 100%]
Pressure (altimeter):29.77 inches Hg (1008.2 mb)
Winds:from the N (350 degrees) at 13 MPH (11 knots; 5.7 m/s)
Visibility:10 or more sm (16+ km)
Ceiling:4600 feet AGL
Clouds: scattered clouds at 2700 feet AGL, broken clouds at 4600 feet AGL, overcast cloud deck at 6000 feet AGL
Weather:-RA (light rain)
QC Flag:automated observation with no human augmentation
Text:KTVY 141215Z AUTO 32012G20KT 10SM -RA BKN055 OVC080 04/02 A2975 RMK AO2
Temperature: 4.0°C ( 39°F)
Dewpoint: 2.0°C ( 36°F) [RH = 87%]
Pressure (altimeter):29.75 inches Hg (1007.5 mb)
Winds:from the NW (320 degrees) at 14 MPH (12 knots; 6.2 m/s) gusting to 23 MPH (20 knots; 10.3 m/s)
Visibility:10 or more sm (16+ km)
Ceiling:5500 feet AGL
Clouds: broken clouds at 5500 feet AGL, overcast cloud deck at 8000 feet AGL
Weather:-RA (light rain)
QC Flag:automated observation with no human augmentation
Text:KTVY 141155Z AUTO 18008KT 10SM RA SCT034 BKN055 OVC080 02/02 A2972 RMK AO2 P0002
Temperature: 2.0°C ( 36°F)
Dewpoint: 2.0°C ( 36°F) [RH = 100%]
Pressure (altimeter):29.72 inches Hg (1006.5 mb)
Winds:from the S (180 degrees) at 9 MPH (8 knots; 4.1 m/s)
Visibility:10 or more sm (16+ km)
Ceiling:5500 feet AGL
Clouds: scattered clouds at 3400 feet AGL, broken clouds at 5500 feet AGL, overcast cloud deck at 8000 feet AGL
Weather:RA (moderate rain)
QC Flag:automated observation with no human augmentation
Text:KTVY 141135Z AUTO 00000KT 2 1/2SM RA SCT035 BKN055 OVC085 01/01 A2974 RMK AO2
Temperature: 1.0°C ( 34°F)
Dewpoint: 1.0°C ( 34°F) [RH = 100%]
Pressure (altimeter):29.74 inches Hg (1007.2 mb)
Winds:calm
Visibility: 2.50 sm ( 4.02 km)
Ceiling:5500 feet AGL
Clouds: scattered clouds at 3500 feet AGL, broken clouds at 5500 feet AGL, overcast cloud deck at 8500 feet AGL
Weather:RA (moderate rain)
QC Flag:automated observation with no human augmentation
Text:KTVY 141115Z AUTO 00000KT 4SM BR BKN055 OVC095 01/01 A2973 RMK AO2
Temperature: 1.0°C ( 34°F)
Dewpoint: 1.0°C ( 34°F) [RH = 100%]
Pressure (altimeter):29.73 inches Hg (1006.9 mb)
Winds:calm
Visibility: 4 sm ( 6 km)
Ceiling:5500 feet AGL
Clouds: broken clouds at 5500 feet AGL, overcast cloud deck at 9500 feet AGL
Weather:BR (mist)
QC Flag:automated observation with no human augmentation
Text:KTVY 141055Z AUTO 00000KT 3SM BR SCT055 BKN065 OVC095 01/01 A2975 RMK AO2
Temperature: 1.0°C ( 34°F)
Dewpoint: 1.0°C ( 34°F) [RH = 100%]
Pressure (altimeter):29.75 inches Hg (1007.5 mb)
Winds:calm
Visibility: 3 sm ( 5 km)
Ceiling:6500 feet AGL
Clouds: scattered clouds at 5500 feet AGL, broken clouds at 6500 feet AGL, overcast cloud deck at 9500 feet AGL
Weather:BR (mist)
QC Flag:automated observation with no human augmentation
Text:KTVY 141035Z AUTO 23006KT 2 1/2SM -RA SCT002 SCT055 OVC095 01/01 A2976 RMK AO2
Temperature: 1.0°C ( 34°F)
Dewpoint: 1.0°C ( 34°F) [RH = 100%]
Pressure (altimeter):29.76 inches Hg (1007.9 mb)
Winds:from the SW (230 degrees) at 7 MPH (6 knots; 3.1 m/s)
Visibility: 2.50 sm ( 4.02 km)
Ceiling:9500 feet AGL
Clouds: scattered clouds at 200 feet AGL, scattered clouds at 5500 feet AGL, overcast cloud deck at 9500 feet AGL
Weather:-RA (light rain)
QC Flag:automated observation with no human augmentation
Text:KTVY 141015Z AUTO 16003KT 2SM BR BKN002 OVC095 01/01 A2977 RMK AO2
Temperature: 1.0°C ( 34°F)
Dewpoint: 1.0°C ( 34°F) [RH = 100%]
Pressure (altimeter):29.77 inches Hg (1008.2 mb)
Winds:from the SSE (160 degrees) at 3 MPH (3 knots; 1.5 m/s)
Visibility: 2.00 sm ( 3.22 km)
Ceiling:200 feet AGL
Clouds: broken clouds at 200 feet AGL, overcast cloud deck at 9500 feet AGL
Weather:BR (mist)
QC Flag:automated observation with no human augmentation
Text:KTVY 140955Z AUTO 00000KT 2SM -RA BKN002 BKN036 OVC065 01/01 A2978 RMK AO2
Temperature: 1.0°C ( 34°F)
Dewpoint: 1.0°C ( 34°F) [RH = 100%]
Pressure (altimeter):29.78 inches Hg (1008.5 mb)
Winds:calm
Visibility: 2.00 sm ( 3.22 km)
Ceiling:200 feet AGL
Clouds: broken clouds at 200 feet AGL, broken clouds at 3600 feet AGL, overcast cloud deck at 6500 feet AGL
Weather:-RA (light rain)
QC Flag:automated observation with no human augmentation
Text:KTVY 140935Z AUTO 00000KT 3SM -DZ SCT055 BKN070 OVC100 01/01 A2979 RMK AO2
Temperature: 1.0°C ( 34°F)
Dewpoint: 1.0°C ( 34°F) [RH = 100%]
Pressure (altimeter):29.79 inches Hg (1008.9 mb)
Winds:calm
Visibility: 3 sm ( 5 km)
Ceiling:7000 feet AGL
Clouds: scattered clouds at 5500 feet AGL, broken clouds at 7000 feet AGL, overcast cloud deck at 10000 feet AGL
Weather:-DZ (light drizzle)
QC Flag:automated observation with no human augmentation
Text:KTVY 140915Z AUTO 20004KT 10SM SCT050 BKN065 OVC110 01/01 A2979 RMK AO2
Temperature: 1.0°C ( 34°F)
Dewpoint: 1.0°C ( 34°F) [RH = 100%]
Pressure (altimeter):29.79 inches Hg (1008.9 mb)
Winds:from the SSW (200 degrees) at 5 MPH (4 knots; 2.1 m/s)
Visibility:10 or more sm (16+ km)
Ceiling:6500 feet AGL
Clouds: scattered clouds at 5000 feet AGL, broken clouds at 6500 feet AGL, overcast cloud deck at 11000 feet AGL
QC Flag:automated observation with no human augmentation
Text:KTVY 140855Z AUTO 00000KT 7SM SCT048 BKN050 OVC065 01/01 A2979 RMK AO2
Temperature: 1.0°C ( 34°F)
Dewpoint: 1.0°C ( 34°F) [RH = 100%]
Pressure (altimeter):29.79 inches Hg (1008.9 mb)
Winds:calm
Visibility: 7 sm ( 11 km)
Ceiling:5000 feet AGL
Clouds: scattered clouds at 4800 feet AGL, broken clouds at 5000 feet AGL, overcast cloud deck at 6500 feet AGL
QC Flag:automated observation with no human augmentation